CheckWX is a tool to help pilots better visualize weather data.  It is not intended as a substitute for an official pre-flight weather briefing.

22:34:43 UTC

KCAE TAF
Columbia Metropolitan Airport
Columbia, South Carolina, USA
KCAE 132334Z 1400/1424 27008KT P6SM SCT050 FM140100 VRB04KT P6SM SCT070

Jul-14@
00:00 UTC

Jul-14 @ 00:00 UTC

Jul-14@
01:00 UTC

Jul-14 @ 01:00 UTC

TAF KCAE 132334Z 1400/1424 27008KT P6SM SCT050

Expired

Wind
  • 270° at 8 KTS
Cloud Levels
  • Scattered at 5,000' AGL

Jul-14@
01:00 UTC

Jul-14 @ 01:00 UTC

Jul-15@
00:00 UTC

Jul-15 @ 00:00 UTC

FM140100 VRB04KT P6SM SCT070

From

From Standard forecast or significant change

Wind
  • Variable at 4 KTS
Cloud Levels
  • Scattered at 7,000' AGL